sensor_id;sensor_type;location;lat;lon;timestamp;P1;durP1;ratioP1;P2;durP2;ratioP2
30681;SDS011;17439;48.092;11.842;2022-07-12T00:01:51;0.77;;;0.77;;
30681;SDS011;17439;48.092;11.842;2022-07-12T00:04:18;2.20;;;1.23;;
30681;SDS011;17439;48.092;11.842;2022-07-12T00:06:45;2.45;;;1.02;;
30681;SDS011;17439;48.092;11.842;2022-07-12T00:09:12;1.05;;;0.77;;
30681;SDS011;17439;48.092;11.842;2022-07-12T00:11:39;1.15;;;1.02;;
30681;SDS011;17439;48.092;11.842;2022-07-12T00:14:05;1.10;;;1.00;;
30681;SDS011;17439;48.092;11.842;2022-07-12T00:16:33;2.45;;;1.33;;
30681;SDS011;17439;48.092;11.842;2022-07-12T00:18:59;2.15;;;1.13;;
30681;SDS011;17439;48.092;11.842;2022-07-12T00:21:26;1.60;;;1.30;;
30681;SDS011;17439;48.092;11.842;2022-07-12T00:23:53;2.92;;;1.05;;
30681;SDS011;17439;48.092;11.842;2022-07-12T00:26:20;0.80;;;0.80;;
30681;SDS011;17439;48.092;11.842;2022-07-12T00:28:46;1.42;;;1.15;;
30681;SDS011;17439;48.092;11.842;2022-07-12T00:31:13;1.80;;;1.20;;
30681;SDS011;17439;48.092;11.842;2022-07-12T00:33:40;1.63;;;1.10;;
30681;SDS011;17439;48.092;11.842;2022-07-12T00:36:06;1.95;;;1.58;;
30681;SDS011;17439;48.092;11.842;2022-07-12T00:38:33;3.70;;;1.40;;
30681;SDS011;17439;48.092;11.842;2022-07-12T00:41:00;4.15;;;1.10;;
30681;SDS011;17439;48.092;11.842;2022-07-12T00:43:27;2.78;;;1.15;;
30681;SDS011;17439;48.092;11.842;2022-07-12T00:45:54;1.20;;;1.10;;
30681;SDS011;17439;48.092;11.842;2022-07-12T00:48:20;2.75;;;1.65;;
30681;SDS011;17439;48.092;11.842;2022-07-12T00:50:47;3.70;;;0.90;;
30681;SDS011;17439;48.092;11.842;2022-07-12T00:53:14;1.35;;;0.90;;
30681;SDS011;17439;48.092;11.842;2022-07-12T00:55:42;2.15;;;1.10;;
30681;SDS011;17439;48.092;11.842;2022-07-12T00:58:08;2.25;;;1.30;;
30681;SDS011;17439;48.092;11.842;2022-07-12T01:00:35;1.55;;;1.45;;
30681;SDS011;17439;48.092;11.842;2022-07-12T01:03:02;2.58;;;1.30;;
30681;SDS011;17439;48.092;11.842;2022-07-12T01:05:29;1.75;;;1.48;;
30681;SDS011;17439;48.092;11.842;2022-07-12T01:07:57;1.10;;;0.88;;
30681;SDS011;17439;48.092;11.842;2022-07-12T01:10:24;1.90;;;1.15;;
30681;SDS011;17439;48.092;11.842;2022-07-12T01:12:51;2.55;;;1.65;;
30681;SDS011;17439;48.092;11.842;2022-07-12T01:15:19;1.23;;;1.02;;
30681;SDS011;17439;48.092;11.842;2022-07-12T01:17:46;1.70;;;1.10;;
30681;SDS011;17439;48.092;11.842;2022-07-12T01:20:19;1.45;;;1.10;;
30681;SDS011;17439;48.092;11.842;2022-07-12T01:22:52;0.80;;;0.80;;
30681;SDS011;17439;48.092;11.842;2022-07-12T01:25:21;1.55;;;1.10;;
30681;SDS011;17439;48.092;11.842;2022-07-12T01:27:48;2.60;;;1.10;;
30681;SDS011;17439;48.092;11.842;2022-07-12T01:30:15;1.48;;;1.00;;
30681;SDS011;17439;48.092;11.842;2022-07-12T01:32:41;2.33;;;1.50;;
30681;SDS011;17439;48.092;11.842;2022-07-12T01:35:08;1.63;;;1.13;;
30681;SDS011;17439;48.092;11.842;2022-07-12T01:37:37;1.73;;;1.17;;
30681;SDS011;17439;48.092;11.842;2022-07-12T01:40:06;1.55;;;1.20;;
30681;SDS011;17439;48.092;11.842;2022-07-12T01:42:35;1.60;;;1.00;;
30681;SDS011;17439;48.092;11.842;2022-07-12T01:45:03;1.57;;;1.10;;
30681;SDS011;17439;48.092;11.842;2022-07-12T01:47:31;1.23;;;0.77;;
30681;SDS011;17439;48.092;11.842;2022-07-12T01:49:59;1.73;;;1.20;;
30681;SDS011;17439;48.092;11.842;2022-07-12T01:52:26;2.30;;;1.20;;
30681;SDS011;17439;48.092;11.842;2022-07-12T01:54:53;1.15;;;1.00;;
30681;SDS011;17439;48.092;11.842;2022-07-12T01:57:20;1.80;;;1.17;;
30681;SDS011;17439;48.092;11.842;2022-07-12T01:59:47;1.20;;;1.10;;
30681;SDS011;17439;48.092;11.842;2022-07-12T02:02:14;1.23;;;1.10;;
30681;SDS011;17439;48.092;11.842;2022-07-12T02:04:42;1.90;;;1.23;;
30681;SDS011;17439;48.092;11.842;2022-07-12T02:07:08;1.52;;;1.05;;
30681;SDS011;17439;48.092;11.842;2022-07-12T02:09:35;1.80;;;1.20;;
30681;SDS011;17439;48.092;11.842;2022-07-12T02:12:01;2.72;;;1.58;;
30681;SDS011;17439;48.092;11.842;2022-07-12T02:14:28;3.97;;;1.40;;
30681;SDS011;17439;48.092;11.842;2022-07-12T02:16:57;1.77;;;1.20;;
30681;SDS011;17439;48.092;11.842;2022-07-12T02:19:23;10.98;;;1.83;;
30681;SDS011;17439;48.092;11.842;2022-07-12T02:21:50;1.73;;;1.20;;
30681;SDS011;17439;48.092;11.842;2022-07-12T02:24:16;1.27;;;1.15;;
30681;SDS011;17439;48.092;11.842;2022-07-12T02:26:43;2.40;;;1.60;;
30681;SDS011;17439;48.092;11.842;2022-07-12T02:29:10;1.67;;;0.98;;
30681;SDS011;17439;48.092;11.842;2022-07-12T02:31:36;1.40;;;1.05;;
30681;SDS011;17439;48.092;11.842;2022-07-12T02:34:03;1.20;;;1.10;;
30681;SDS011;17439;48.092;11.842;2022-07-12T02:36:30;1.20;;;1.10;;
30681;SDS011;17439;48.092;11.842;2022-07-12T02:38:56;2.13;;;1.30;;
30681;SDS011;17439;48.092;11.842;2022-07-12T02:41:26;1.17;;;1.08;;
30681;SDS011;17439;48.092;11.842;2022-07-12T02:43:52;2.25;;;1.35;;
30681;SDS011;17439;48.092;11.842;2022-07-12T02:46:19;2.92;;;1.17;;
30681;SDS011;17439;48.092;11.842;2022-07-12T02:48:46;1.92;;;1.10;;
30681;SDS011;17439;48.092;11.842;2022-07-12T02:51:12;1.23;;;0.93;;
30681;SDS011;17439;48.092;11.842;2022-07-12T02:53:39;1.02;;;0.90;;
30681;SDS011;17439;48.092;11.842;2022-07-12T02:56:07;2.80;;;1.40;;
30681;SDS011;17439;48.092;11.842;2022-07-12T02:58:34;1.92;;;1.55;;
30681;SDS011;17439;48.092;11.842;2022-07-12T03:01:01;1.20;;;1.08;;
30681;SDS011;17439;48.092;11.842;2022-07-12T03:03:29;2.83;;;1.50;;
30681;SDS011;17439;48.092;11.842;2022-07-12T03:05:55;2.08;;;1.50;;
30681;SDS011;17439;48.092;11.842;2022-07-12T03:08:23;1.33;;;1.23;;
30681;SDS011;17439;48.092;11.842;2022-07-12T03:10:49;2.20;;;1.38;;
30681;SDS011;17439;48.092;11.842;2022-07-12T03:13:16;1.50;;;1.30;;
30681;SDS011;17439;48.092;11.842;2022-07-12T03:15:43;1.52;;;1.15;;
30681;SDS011;17439;48.092;11.842;2022-07-12T03:18:09;2.58;;;1.30;;
30681;SDS011;17439;48.092;11.842;2022-07-12T03:20:36;1.60;;;1.30;;
30681;SDS011;17439;48.092;11.842;2022-07-12T03:23:03;1.90;;;1.40;;
30681;SDS011;17439;48.092;11.842;2022-07-12T03:25:29;1.30;;;0.98;;
30681;SDS011;17439;48.092;11.842;2022-07-12T03:27:56;1.35;;;1.10;;
30681;SDS011;17439;48.092;11.842;2022-07-12T03:30:22;1.70;;;1.00;;
30681;SDS011;17439;48.092;11.842;2022-07-12T03:32:49;1.13;;;1.00;;
30681;SDS011;17439;48.092;11.842;2022-07-12T03:35:17;1.23;;;1.08;;
30681;SDS011;17439;48.092;11.842;2022-07-12T03:37:47;2.20;;;1.55;;
30681;SDS011;17439;48.092;11.842;2022-07-12T03:40:16;1.15;;;1.00;;
30681;SDS011;17439;48.092;11.842;2022-07-12T03:42:44;1.45;;;1.17;;
30681;SDS011;17439;48.092;11.842;2022-07-12T03:45:11;2.47;;;1.50;;
30681;SDS011;17439;48.092;11.842;2022-07-12T03:47:39;1.60;;;1.10;;
30681;SDS011;17439;48.092;11.842;2022-07-12T03:50:10;1.27;;;1.17;;
30681;SDS011;17439;48.092;11.842;2022-07-12T03:52:40;2.75;;;1.30;;
30681;SDS011;17439;48.092;11.842;2022-07-12T03:55:07;1.10;;;0.90;;
30681;SDS011;17439;48.092;11.842;2022-07-12T04:00:06;1.30;;;0.88;;
30681;SDS011;17439;48.092;11.842;2022-07-12T04:02:34;2.35;;;1.13;;
30681;SDS011;17439;48.092;11.842;2022-07-12T04:05:01;1.13;;;0.93;;
30681;SDS011;17439;48.092;11.842;2022-07-12T04:07:28;1.25;;;0.98;;
30681;SDS011;17439;48.092;11.842;2022-07-12T04:09:54;1.48;;;1.10;;
30681;SDS011;17439;48.092;11.842;2022-07-12T04:12:21;1.45;;;1.27;;
30681;SDS011;17439;48.092;11.842;2022-07-12T04:14:47;1.17;;;1.08;;
30681;SDS011;17439;48.092;11.842;2022-07-12T04:17:14;2.70;;;1.13;;
30681;SDS011;17439;48.092;11.842;2022-07-12T04:19:41;1.27;;;1.10;;
30681;SDS011;17439;48.092;11.842;2022-07-12T04:22:07;3.40;;;1.15;;
30681;SDS011;17439;48.092;11.842;2022-07-12T04:24:34;1.67;;;0.90;;
30681;SDS011;17439;48.092;11.842;2022-07-12T04:27:00;2.10;;;1.10;;
30681;SDS011;17439;48.092;11.842;2022-07-12T04:29:27;3.22;;;1.42;;
30681;SDS011;17439;48.092;11.842;2022-07-12T04:31:54;1.75;;;0.90;;
30681;SDS011;17439;48.092;11.842;2022-07-12T04:34:20;1.30;;;1.20;;
30681;SDS011;17439;48.092;11.842;2022-07-12T04:36:47;0.95;;;0.88;;
30681;SDS011;17439;48.092;11.842;2022-07-12T04:39:14;1.80;;;1.20;;
30681;SDS011;17439;48.092;11.842;2022-07-12T04:41:41;1.48;;;1.20;;
30681;SDS011;17439;48.092;11.842;2022-07-12T04:44:07;2.15;;;1.50;;
30681;SDS011;17439;48.092;11.842;2022-07-12T04:46:35;2.50;;;1.63;;
30681;SDS011;17439;48.092;11.842;2022-07-12T04:49:02;3.78;;;1.48;;
30681;SDS011;17439;48.092;11.842;2022-07-12T04:51:29;2.97;;;1.58;;
30681;SDS011;17439;48.092;11.842;2022-07-12T04:53:55;2.58;;;1.23;;
30681;SDS011;17439;48.092;11.842;2022-07-12T04:56:22;2.65;;;1.38;;
30681;SDS011;17439;48.092;11.842;2022-07-12T04:58:49;2.03;;;1.27;;
30681;SDS011;17439;48.092;11.842;2022-07-12T05:01:16;2.05;;;1.40;;
30681;SDS011;17439;48.092;11.842;2022-07-12T05:03:43;1.85;;;1.38;;
30681;SDS011;17439;48.092;11.842;2022-07-12T05:06:09;5.75;;;1.38;;
30681;SDS011;17439;48.092;11.842;2022-07-12T05:08:36;1.70;;;1.30;;
30681;SDS011;17439;48.092;11.842;2022-07-12T05:11:03;1.55;;;1.35;;
30681;SDS011;17439;48.092;11.842;2022-07-12T05:13:30;1.23;;;1.13;;
30681;SDS011;17439;48.092;11.842;2022-07-12T05:15:56;1.65;;;1.48;;
30681;SDS011;17439;48.092;11.842;2022-07-12T05:18:23;2.20;;;1.15;;
30681;SDS011;17439;48.092;11.842;2022-07-12T05:20:50;1.25;;;1.05;;
30681;SDS011;17439;48.092;11.842;2022-07-12T05:23:18;3.33;;;1.70;;
30681;SDS011;17439;48.092;11.842;2022-07-12T05:25:45;3.22;;;2.13;;
30681;SDS011;17439;48.092;11.842;2022-07-12T05:28:13;6.25;;;1.67;;
30681;SDS011;17439;48.092;11.842;2022-07-12T05:30:40;2.40;;;1.70;;
30681;SDS011;17439;48.092;11.842;2022-07-12T05:33:07;2.65;;;2.05;;
30681;SDS011;17439;48.092;11.842;2022-07-12T05:35:33;4.32;;;1.75;;
30681;SDS011;17439;48.092;11.842;2022-07-12T05:38:00;2.70;;;2.13;;
30681;SDS011;17439;48.092;11.842;2022-07-12T05:40:27;3.33;;;2.45;;
30681;SDS011;17439;48.092;11.842;2022-07-12T05:42:53;2.38;;;1.92;;
30681;SDS011;17439;48.092;11.842;2022-07-12T05:45:21;3.88;;;1.75;;
30681;SDS011;17439;48.092;11.842;2022-07-12T05:47:48;9.50;;;2.38;;
30681;SDS011;17439;48.092;11.842;2022-07-12T05:50:14;3.78;;;2.22;;
30681;SDS011;17439;48.092;11.842;2022-07-12T05:52:41;4.47;;;2.30;;
30681;SDS011;17439;48.092;11.842;2022-07-12T05:55:08;3.13;;;2.22;;
30681;SDS011;17439;48.092;11.842;2022-07-12T05:57:34;5.05;;;2.40;;
30681;SDS011;17439;48.092;11.842;2022-07-12T06:00:01;3.83;;;2.45;;
30681;SDS011;17439;48.092;11.842;2022-07-12T06:02:29;3.38;;;2.40;;
30681;SDS011;17439;48.092;11.842;2022-07-12T06:04:56;2.90;;;1.90;;
30681;SDS011;17439;48.092;11.842;2022-07-12T06:07:23;3.03;;;2.33;;
30681;SDS011;17439;48.092;11.842;2022-07-12T06:09:49;3.58;;;1.92;;
30681;SDS011;17439;48.092;11.842;2022-07-12T06:12:16;2.13;;;1.92;;
30681;SDS011;17439;48.092;11.842;2022-07-12T06:14:43;2.65;;;2.03;;
30681;SDS011;17439;48.092;11.842;2022-07-12T06:17:09;2.30;;;2.03;;
30681;SDS011;17439;48.092;11.842;2022-07-12T06:19:36;4.55;;;2.20;;
30681;SDS011;17439;48.092;11.842;2022-07-12T06:22:02;3.63;;;1.67;;
30681;SDS011;17439;48.092;11.842;2022-07-12T06:24:29;3.20;;;2.40;;
30681;SDS011;17439;48.092;11.842;2022-07-12T06:26:56;2.00;;;1.73;;
30681;SDS011;17439;48.092;11.842;2022-07-12T06:29:22;3.55;;;2.65;;
30681;SDS011;17439;48.092;11.842;2022-07-12T06:31:49;3.63;;;1.85;;
30681;SDS011;17439;48.092;11.842;2022-07-12T06:34:16;3.10;;;1.85;;
30681;SDS011;17439;48.092;11.842;2022-07-12T06:36:42;1.90;;;1.63;;
30681;SDS011;17439;48.092;11.842;2022-07-12T06:39:09;1.67;;;1.45;;
30681;SDS011;17439;48.092;11.842;2022-07-12T06:41:35;2.00;;;1.75;;
30681;SDS011;17439;48.092;11.842;2022-07-12T06:44:02;1.55;;;1.40;;
30681;SDS011;17439;48.092;11.842;2022-07-12T06:46:29;2.60;;;1.60;;
30681;SDS011;17439;48.092;11.842;2022-07-12T06:48:56;3.63;;;1.90;;
30681;SDS011;17439;48.092;11.842;2022-07-12T06:51:22;2.17;;;1.55;;
30681;SDS011;17439;48.092;11.842;2022-07-12T06:53:49;1.50;;;1.30;;
30681;SDS011;17439;48.092;11.842;2022-07-12T06:56:15;1.95;;;1.30;;
30681;SDS011;17439;48.092;11.842;2022-07-12T06:58:42;1.60;;;1.23;;
30681;SDS011;17439;48.092;11.842;2022-07-12T07:01:08;2.60;;;1.30;;
30681;SDS011;17439;48.092;11.842;2022-07-12T07:03:35;2.58;;;1.38;;
30681;SDS011;17439;48.092;11.842;2022-07-12T07:06:02;3.35;;;1.30;;
30681;SDS011;17439;48.092;11.842;2022-07-12T07:08:28;1.77;;;1.20;;
30681;SDS011;17439;48.092;11.842;2022-07-12T07:10:55;1.85;;;1.02;;
30681;SDS011;17439;48.092;11.842;2022-07-12T07:13:21;2.72;;;0.90;;
30681;SDS011;17439;48.092;11.842;2022-07-12T07:15:48;1.88;;;1.10;;
30681;SDS011;17439;48.092;11.842;2022-07-12T07:18:15;3.83;;;1.35;;
30681;SDS011;17439;48.092;11.842;2022-07-12T07:20:41;3.08;;;0.82;;
30681;SDS011;17439;48.092;11.842;2022-07-12T07:23:08;1.75;;;1.00;;
30681;SDS011;17439;48.092;11.842;2022-07-12T07:25:34;1.48;;;0.93;;
30681;SDS011;17439;48.092;11.842;2022-07-12T07:28:01;1.27;;;0.85;;
30681;SDS011;17439;48.092;11.842;2022-07-12T07:30:28;1.88;;;0.90;;
30681;SDS011;17439;48.092;11.842;2022-07-12T07:32:55;1.20;;;1.08;;
30681;SDS011;17439;48.092;11.842;2022-07-12T07:35:23;1.47;;;1.23;;
30681;SDS011;17439;48.092;11.842;2022-07-12T07:37:49;1.48;;;1.05;;
30681;SDS011;17439;48.092;11.842;2022-07-12T07:40:16;2.13;;;1.00;;
30681;SDS011;17439;48.092;11.842;2022-07-12T07:42:43;2.47;;;1.00;;
30681;SDS011;17439;48.092;11.842;2022-07-12T07:45:09;1.15;;;0.85;;
30681;SDS011;17439;48.092;11.842;2022-07-12T07:50:35;0.95;;;0.70;;
30681;SDS011;17439;48.092;11.842;2022-07-12T07:53:02;1.20;;;0.73;;
30681;SDS011;17439;48.092;11.842;2022-07-12T07:55:28;1.08;;;0.85;;
30681;SDS011;17439;48.092;11.842;2022-07-12T07:57:55;2.10;;;1.00;;
30681;SDS011;17439;48.092;11.842;2022-07-12T08:00:22;0.75;;;0.73;;
30681;SDS011;17439;48.092;11.842;2022-07-12T08:02:48;1.30;;;0.93;;
30681;SDS011;17439;48.092;11.842;2022-07-12T08:05:15;1.10;;;0.80;;
30681;SDS011;17439;48.092;11.842;2022-07-12T08:07:41;3.05;;;0.80;;
30681;SDS011;17439;48.092;11.842;2022-07-12T08:10:20;2.50;;;0.82;;
30681;SDS011;17439;48.092;11.842;2022-07-12T08:12:46;0.60;;;0.60;;
30681;SDS011;17439;48.092;11.842;2022-07-12T08:15:13;1.85;;;0.93;;
30681;SDS011;17439;48.092;11.842;2022-07-12T08:17:40;1.75;;;0.88;;
30681;SDS011;17439;48.092;11.842;2022-07-12T08:20:19;1.00;;;0.90;;
30681;SDS011;17439;48.092;11.842;2022-07-12T08:23:07;1.85;;;0.88;;
30681;SDS011;17439;48.092;11.842;2022-07-12T08:25:34;1.50;;;0.80;;
30681;SDS011;17439;48.092;11.842;2022-07-12T08:28:01;1.25;;;0.90;;
30681;SDS011;17439;48.092;11.842;2022-07-12T08:30:27;2.30;;;1.15;;
30681;SDS011;17439;48.092;11.842;2022-07-12T08:32:54;0.80;;;0.80;;
30681;SDS011;17439;48.092;11.842;2022-07-12T08:35:20;0.93;;;0.80;;
30681;SDS011;17439;48.092;11.842;2022-07-12T08:37:47;1.30;;;0.70;;
30681;SDS011;17439;48.092;11.842;2022-07-12T08:40:14;1.25;;;0.85;;
30681;SDS011;17439;48.092;11.842;2022-07-12T08:42:41;1.95;;;0.93;;
30681;SDS011;17439;48.092;11.842;2022-07-12T08:45:09;1.60;;;0.90;;
30681;SDS011;17439;48.092;11.842;2022-07-12T08:47:36;0.73;;;0.70;;
30681;SDS011;17439;48.092;11.842;2022-07-12T08:50:09;5.20;;;1.10;;
30681;SDS011;17439;48.092;11.842;2022-07-12T08:52:42;1.02;;;0.60;;
30681;SDS011;17439;48.092;11.842;2022-07-12T08:55:25;1.60;;;0.70;;
30681;SDS011;17439;48.092;11.842;2022-07-12T08:58:01;1.38;;;0.82;;
30681;SDS011;17439;48.092;11.842;2022-07-12T09:00:29;4.60;;;1.17;;
30681;SDS011;17439;48.092;11.842;2022-07-12T09:02:58;1.23;;;0.77;;
30681;SDS011;17439;48.092;11.842;2022-07-12T09:05:27;2.67;;;0.90;;
30681;SDS011;17439;48.092;11.842;2022-07-12T09:08:31;1.88;;;0.70;;
30681;SDS011;17439;48.092;11.842;2022-07-12T09:11:11;1.27;;;0.90;;
30681;SDS011;17439;48.092;11.842;2022-07-12T09:14:00;2.95;;;1.00;;
30681;SDS011;17439;48.092;11.842;2022-07-12T09:17:05;0.90;;;0.82;;
30681;SDS011;17439;48.092;11.842;2022-07-12T09:19:55;1.40;;;0.93;;
30681;SDS011;17439;48.092;11.842;2022-07-12T09:22:59;1.33;;;0.90;;
30681;SDS011;17439;48.092;11.842;2022-07-12T09:25:47;0.83;;;0.80;;
30681;SDS011;17439;48.092;11.842;2022-07-12T09:28:33;1.25;;;1.15;;
30681;SDS011;17439;48.092;11.842;2022-07-12T09:31:18;4.78;;;1.83;;
30681;SDS011;17439;48.092;11.842;2022-07-12T09:34:04;1.45;;;1.10;;
30681;SDS011;17439;48.092;11.842;2022-07-12T09:36:55;3.05;;;1.17;;
30681;SDS011;17439;48.092;11.842;2022-07-12T09:39:42;1.13;;;0.75;;
30681;SDS011;17439;48.092;11.842;2022-07-12T09:42:28;3.60;;;0.68;;
30681;SDS011;17439;48.092;11.842;2022-07-12T09:45:14;3.85;;;1.10;;
30681;SDS011;17439;48.092;11.842;2022-07-12T09:48:00;1.00;;;0.80;;
30681;SDS011;17439;48.092;11.842;2022-07-12T09:50:48;5.57;;;0.97;;
30681;SDS011;17439;48.092;11.842;2022-07-12T09:53:38;1.50;;;0.80;;
30681;SDS011;17439;48.092;11.842;2022-07-12T09:56:27;1.30;;;1.10;;
30681;SDS011;17439;48.092;11.842;2022-07-12T09:59:15;0.85;;;0.70;;
30681;SDS011;17439;48.092;11.842;2022-07-12T10:02:05;0.82;;;0.80;;
30681;SDS011;17439;48.092;11.842;2022-07-12T10:04:51;1.25;;;0.77;;
30681;SDS011;17439;48.092;11.842;2022-07-12T10:07:38;0.70;;;0.70;;
30681;SDS011;17439;48.092;11.842;2022-07-12T10:10:25;0.60;;;0.60;;
30681;SDS011;17439;48.092;11.842;2022-07-12T10:13:13;2.30;;;0.65;;
30681;SDS011;17439;48.092;11.842;2022-07-12T10:16:00;2.53;;;0.60;;
30681;SDS011;17439;48.092;11.842;2022-07-12T10:18:46;1.00;;;0.50;;
30681;SDS011;17439;48.092;11.842;2022-07-12T10:21:31;0.82;;;0.63;;
30681;SDS011;17439;48.092;11.842;2022-07-12T10:30:13;0.40;;;0.40;;
30681;SDS011;17439;48.092;11.842;2022-07-12T10:33:00;0.65;;;0.50;;
30681;SDS011;17439;48.092;11.842;2022-07-12T10:35:58;0.95;;;0.50;;
30681;SDS011;17439;48.092;11.842;2022-07-12T10:38:48;0.77;;;0.60;;
30681;SDS011;17439;48.092;11.842;2022-07-12T10:45:09;1.98;;;0.52;;
30681;SDS011;17439;48.092;11.842;2022-07-12T10:47:59;0.55;;;0.55;;
30681;SDS011;17439;48.092;11.842;2022-07-12T10:53:31;0.80;;;0.70;;
30681;SDS011;17439;48.092;11.842;2022-07-12T10:59:10;1.38;;;0.63;;
30681;SDS011;17439;48.092;11.842;2022-07-12T11:01:56;1.90;;;0.60;;
30681;SDS011;17439;48.092;11.842;2022-07-12T11:04:47;0.40;;;0.40;;
30681;SDS011;17439;48.092;11.842;2022-07-12T11:07:33;0.43;;;0.40;;
30681;SDS011;17439;48.092;11.842;2022-07-12T11:10:18;0.80;;;0.40;;
30681;SDS011;17439;48.092;11.842;2022-07-12T11:13:19;0.70;;;0.50;;
30681;SDS011;17439;48.092;11.842;2022-07-12T11:16:09;0.52;;;0.50;;
30681;SDS011;17439;48.092;11.842;2022-07-12T11:18:55;0.43;;;0.43;;
30681;SDS011;17439;48.092;11.842;2022-07-12T11:21:46;3.42;;;0.73;;
30681;SDS011;17439;48.092;11.842;2022-07-12T11:24:32;4.45;;;0.80;;
30681;SDS011;17439;48.092;11.842;2022-07-12T11:27:18;1.55;;;0.45;;
30681;SDS011;17439;48.092;11.842;2022-07-12T11:30:05;0.68;;;0.60;;
30681;SDS011;17439;48.092;11.842;2022-07-12T11:32:51;0.50;;;0.45;;
30681;SDS011;17439;48.092;11.842;2022-07-12T11:35:39;1.35;;;0.85;;
30681;SDS011;17439;48.092;11.842;2022-07-12T11:38:28;0.52;;;0.52;;
30681;SDS011;17439;48.092;11.842;2022-07-12T11:41:21;1.40;;;0.50;;
30681;SDS011;17439;48.092;11.842;2022-07-12T11:44:07;1.70;;;0.65;;
30681;SDS011;17439;48.092;11.842;2022-07-12T11:46:52;0.70;;;0.40;;
30681;SDS011;17439;48.092;11.842;2022-07-12T11:49:56;0.35;;;0.35;;
30681;SDS011;17439;48.092;11.842;2022-07-12T11:52:41;0.63;;;0.38;;
30681;SDS011;17439;48.092;11.842;2022-07-12T11:55:28;4.18;;;0.43;;
30681;SDS011;17439;48.092;11.842;2022-07-12T11:58:14;0.25;;;0.25;;
30681;SDS011;17439;48.092;11.842;2022-07-12T12:01:01;0.73;;;0.30;;
30681;SDS011;17439;48.092;11.842;2022-07-12T12:03:46;1.30;;;0.40;;
30681;SDS011;17439;48.092;11.842;2022-07-12T12:06:31;0.55;;;0.40;;
30681;SDS011;17439;48.092;11.842;2022-07-12T12:09:16;0.60;;;0.60;;
30681;SDS011;17439;48.092;11.842;2022-07-12T12:12:02;0.40;;;0.30;;
30681;SDS011;17439;48.092;11.842;2022-07-12T12:14:47;0.68;;;0.50;;
30681;SDS011;17439;48.092;11.842;2022-07-12T12:17:33;1.40;;;0.80;;
30681;SDS011;17439;48.092;11.842;2022-07-12T12:20:20;1.80;;;0.45;;
30681;SDS011;17439;48.092;11.842;2022-07-12T12:23:17;0.50;;;0.30;;
30681;SDS011;17439;48.092;11.842;2022-07-12T12:28:55;1.10;;;0.40;;
30681;SDS011;17439;48.092;11.842;2022-07-12T12:31:41;0.88;;;0.25;;
30681;SDS011;17439;48.092;11.842;2022-07-12T12:34:26;0.70;;;0.45;;
30681;SDS011;17439;48.092;11.842;2022-07-12T12:37:11;1.52;;;0.85;;
30681;SDS011;17439;48.092;11.842;2022-07-12T12:39:56;0.98;;;0.40;;
30681;SDS011;17439;48.092;11.842;2022-07-12T12:42:42;1.40;;;1.00;;
30681;SDS011;17439;48.092;11.842;2022-07-12T12:45:27;0.30;;;0.30;;
30681;SDS011;17439;48.092;11.842;2022-07-12T12:48:17;0.88;;;0.52;;
30681;SDS011;17439;48.092;11.842;2022-07-12T12:51:04;8.30;;;0.77;;
30681;SDS011;17439;48.092;11.842;2022-07-12T12:53:54;1.30;;;0.50;;
30681;SDS011;17439;48.092;11.842;2022-07-12T12:56:40;0.50;;;0.50;;
30681;SDS011;17439;48.092;11.842;2022-07-12T12:59:26;2.80;;;0.40;;
30681;SDS011;17439;48.092;11.842;2022-07-12T13:02:11;0.82;;;0.70;;
30681;SDS011;17439;48.092;11.842;2022-07-12T13:04:57;0.60;;;0.40;;
30681;SDS011;17439;48.092;11.842;2022-07-12T13:07:42;0.52;;;0.30;;
30681;SDS011;17439;48.092;11.842;2022-07-12T13:10:28;0.40;;;0.40;;
30681;SDS011;17439;48.092;11.842;2022-07-12T13:13:13;0.85;;;0.73;;
30681;SDS011;17439;48.092;11.842;2022-07-12T13:16:03;1.75;;;0.50;;
30681;SDS011;17439;48.092;11.842;2022-07-12T13:18:49;0.25;;;0.25;;
30681;SDS011;17439;48.092;11.842;2022-07-12T13:21:34;2.70;;;0.43;;
30681;SDS011;17439;48.092;11.842;2022-07-12T13:24:20;1.23;;;0.40;;
30681;SDS011;17439;48.092;11.842;2022-07-12T13:27:05;1.38;;;0.50;;
30681;SDS011;17439;48.092;11.842;2022-07-12T13:29:50;0.28;;;0.28;;
30681;SDS011;17439;48.092;11.842;2022-07-12T13:32:36;0.50;;;0.50;;
30681;SDS011;17439;48.092;11.842;2022-07-12T13:35:22;0.50;;;0.50;;
30681;SDS011;17439;48.092;11.842;2022-07-12T13:38:08;0.47;;;0.40;;
30681;SDS011;17439;48.092;11.842;2022-07-12T13:40:53;0.85;;;0.40;;
30681;SDS011;17439;48.092;11.842;2022-07-12T13:43:38;0.60;;;0.50;;
30681;SDS011;17439;48.092;11.842;2022-07-12T13:46:23;0.30;;;0.30;;
30681;SDS011;17439;48.092;11.842;2022-07-12T13:49:09;1.60;;;0.38;;
30681;SDS011;17439;48.092;11.842;2022-07-12T13:51:54;1.23;;;0.30;;
30681;SDS011;17439;48.092;11.842;2022-07-12T13:54:39;0.45;;;0.40;;
30681;SDS011;17439;48.092;11.842;2022-07-12T13:57:24;1.55;;;0.73;;
30681;SDS011;17439;48.092;11.842;2022-07-12T14:00:11;1.13;;;0.50;;
30681;SDS011;17439;48.092;11.842;2022-07-12T14:02:58;0.38;;;0.38;;
30681;SDS011;17439;48.092;11.842;2022-07-12T14:05:44;3.35;;;0.52;;
30681;SDS011;17439;48.092;11.842;2022-07-12T14:08:29;0.52;;;0.30;;
30681;SDS011;17439;48.092;11.842;2022-07-12T14:11:15;1.08;;;0.50;;
30681;SDS011;17439;48.092;11.842;2022-07-12T14:14:01;1.85;;;0.40;;
30681;SDS011;17439;48.092;11.842;2022-07-12T14:16:46;3.45;;;0.90;;
30681;SDS011;17439;48.092;11.842;2022-07-12T14:19:32;0.80;;;0.60;;
30681;SDS011;17439;48.092;11.842;2022-07-12T14:22:17;0.52;;;0.40;;
30681;SDS011;17439;48.092;11.842;2022-07-12T14:25:03;0.98;;;0.40;;
30681;SDS011;17439;48.092;11.842;2022-07-12T14:27:49;0.73;;;0.50;;
30681;SDS011;17439;48.092;11.842;2022-07-12T14:30:34;1.63;;;0.50;;
30681;SDS011;17439;48.092;11.842;2022-07-12T14:33:20;2.05;;;0.80;;
30681;SDS011;17439;48.092;11.842;2022-07-12T14:36:05;1.13;;;0.47;;
30681;SDS011;17439;48.092;11.842;2022-07-12T14:38:50;2.33;;;0.60;;
30681;SDS011;17439;48.092;11.842;2022-07-12T14:41:37;3.50;;;0.43;;
30681;SDS011;17439;48.092;11.842;2022-07-12T14:44:23;3.72;;;0.52;;
30681;SDS011;17439;48.092;11.842;2022-07-12T14:47:08;0.38;;;0.35;;
30681;SDS011;17439;48.092;11.842;2022-07-12T14:49:54;0.63;;;0.60;;
30681;SDS011;17439;48.092;11.842;2022-07-12T14:52:39;0.35;;;0.35;;
30681;SDS011;17439;48.092;11.842;2022-07-12T14:55:24;2.45;;;0.38;;
30681;SDS011;17439;48.092;11.842;2022-07-12T14:58:10;0.55;;;0.40;;
30681;SDS011;17439;48.092;11.842;2022-07-12T15:00:56;1.90;;;0.63;;
30681;SDS011;17439;48.092;11.842;2022-07-12T15:03:41;1.35;;;0.43;;
30681;SDS011;17439;48.092;11.842;2022-07-12T15:06:27;0.47;;;0.45;;
30681;SDS011;17439;48.092;11.842;2022-07-12T15:09:12;1.60;;;0.40;;
30681;SDS011;17439;48.092;11.842;2022-07-12T15:11:58;0.30;;;0.30;;
30681;SDS011;17439;48.092;11.842;2022-07-12T15:14:44;2.00;;;0.73;;
30681;SDS011;17439;48.092;11.842;2022-07-12T15:17:34;1.20;;;0.60;;
30681;SDS011;17439;48.092;11.842;2022-07-12T15:20:20;3.85;;;0.60;;
30681;SDS011;17439;48.092;11.842;2022-07-12T15:23:05;0.80;;;0.68;;
30681;SDS011;17439;48.092;11.842;2022-07-12T15:25:50;3.72;;;1.40;;
30681;SDS011;17439;48.092;11.842;2022-07-12T15:28:48;3.33;;;1.52;;
30681;SDS011;17439;48.092;11.842;2022-07-12T15:31:35;1.77;;;0.93;;
30681;SDS011;17439;48.092;11.842;2022-07-12T15:34:21;0.73;;;0.50;;
30681;SDS011;17439;48.092;11.842;2022-07-12T15:37:06;0.43;;;0.43;;
30681;SDS011;17439;48.092;11.842;2022-07-12T15:39:52;0.60;;;0.40;;
30681;SDS011;17439;48.092;11.842;2022-07-12T15:42:37;1.45;;;0.40;;